createdAt,value
2022-08-14T00:01:59.437Z,20.90
2022-08-14T00:04:36.004Z,20.90
2022-08-14T00:07:14.094Z,20.90
2022-08-14T00:09:55.607Z,20.90
2022-08-14T00:12:33.818Z,20.90
2022-08-14T00:15:21.745Z,20.90
2022-08-14T00:17:53.253Z,20.90
2022-08-14T00:20:30.354Z,20.90
2022-08-14T00:23:08.413Z,20.90
2022-08-14T00:25:42.934Z,20.90
2022-08-14T00:28:15.617Z,20.80
2022-08-14T00:30:46.399Z,20.90
2022-08-14T00:33:15.446Z,20.90
2022-08-14T00:36:37.179Z,20.90
2022-08-14T00:38:31.998Z,20.90
2022-08-14T00:41:02.558Z,21.00
2022-08-14T00:43:31.691Z,21.00
2022-08-14T00:46:05.097Z,21.00
2022-08-14T00:48:34.787Z,21.10
2022-08-14T00:51:06.474Z,21.10
2022-08-14T00:53:33.387Z,21.20
2022-08-14T00:56:00.339Z,21.20
2022-08-14T00:58:33.412Z,21.20
2022-08-14T01:01:09.220Z,21.30
2022-08-14T01:03:42.599Z,21.30
2022-08-14T01:06:18.653Z,21.30
2022-08-14T01:08:57.719Z,21.40
2022-08-14T01:11:31.558Z,21.40
2022-08-14T01:14:00.823Z,21.40
2022-08-14T01:16:31.197Z,21.40
2022-08-14T01:19:17.330Z,21.40
2022-08-14T01:21:53.123Z,21.40
2022-08-14T01:24:24.673Z,21.50
2022-08-14T01:27:00.215Z,21.40
2022-08-14T01:29:58.521Z,21.40
2022-08-14T01:32:23.196Z,21.40
2022-08-14T01:35:19.619Z,21.40
2022-08-14T01:37:54.760Z,21.40
2022-08-14T01:40:25.481Z,21.40
2022-08-14T01:42:59.685Z,21.40
2022-08-14T01:45:26.577Z,21.40
2022-08-14T01:48:03.378Z,21.40
2022-08-14T01:50:33.710Z,21.40
2022-08-14T01:53:01.446Z,21.40
2022-08-14T01:55:32.297Z,21.40
2022-08-14T01:58:02.132Z,21.40
2022-08-14T02:00:48.075Z,21.30
2022-08-14T02:03:16.138Z,21.30
2022-08-14T02:05:43.437Z,21.30
2022-08-14T02:08:10.599Z,21.30
2022-08-14T02:10:47.077Z,21.30
2022-08-14T02:13:16.675Z,21.30
2022-08-14T02:15:45.345Z,21.20
2022-08-14T02:18:15.329Z,21.20
2022-08-14T02:20:42.680Z,21.20
2022-08-14T02:23:09.654Z,21.20
2022-08-14T02:25:39.347Z,21.20
2022-08-14T02:28:24.892Z,21.20
2022-08-14T02:30:53.222Z,21.20
2022-08-14T02:33:23.211Z,21.30
2022-08-14T02:35:53.469Z,21.30
2022-08-14T02:38:29.995Z,21.30
2022-08-14T02:40:58.504Z,21.20
2022-08-14T02:43:37.379Z,21.20
2022-08-14T02:46:13.755Z,21.20
2022-08-14T02:49:03.048Z,21.20
2022-08-14T02:51:34.687Z,21.30
2022-08-14T02:54:07.141Z,21.20
2022-08-14T02:57:16.013Z,21.20
2022-08-14T02:59:24.727Z,21.30
2022-08-14T03:01:57.394Z,21.20
2022-08-14T03:04:26.441Z,21.20
2022-08-14T03:07:06.014Z,21.20
2022-08-14T03:09:42.034Z,21.20
2022-08-14T03:12:30.864Z,21.20
2022-08-14T03:15:02.847Z,21.20
2022-08-14T03:17:31.613Z,21.20
2022-08-14T03:19:59.015Z,21.20
2022-08-14T03:22:27.758Z,21.20
2022-08-14T03:24:56.654Z,21.20
2022-08-14T03:27:26.364Z,21.20
2022-08-14T03:29:54.239Z,21.20
2022-08-14T03:32:20.961Z,21.20
2022-08-14T03:34:58.605Z,21.10
2022-08-14T03:37:51.734Z,21.10
2022-08-14T03:40:18.291Z,21.10
2022-08-14T03:42:45.481Z,21.10
2022-08-14T03:45:27.853Z,21.00
2022-08-14T03:48:02.135Z,21.00
2022-08-14T03:50:31.499Z,21.00
2022-08-14T03:53:03.105Z,20.90
2022-08-14T03:55:30.903Z,20.90
2022-08-14T03:58:00.651Z,21.00
2022-08-14T04:00:44.374Z,20.90
2022-08-14T04:03:18.018Z,21.00
2022-08-14T04:05:50.555Z,21.00
2022-08-14T04:08:29.041Z,21.00
2022-08-14T04:11:01.973Z,21.00
2022-08-14T04:13:35.616Z,21.00
2022-08-14T04:16:10.075Z,21.00
2022-08-14T04:18:42.410Z,21.00
2022-08-14T04:21:10.526Z,21.10
2022-08-14T04:23:39.663Z,21.10
2022-08-14T04:26:14.773Z,21.10
2022-08-14T04:29:08.582Z,21.10
2022-08-14T04:33:02.520Z,21.10
2022-08-14T04:34:27.129Z,21.10
2022-08-14T04:37:13.915Z,21.20
2022-08-14T04:40:08.699Z,21.10
2022-08-14T04:42:54.565Z,21.10
2022-08-14T04:45:23.771Z,21.20
2022-08-14T04:48:12.512Z,21.10
2022-08-14T04:50:53.870Z,21.20
2022-08-14T04:53:26.492Z,21.20
2022-08-14T04:56:02.518Z,21.20
2022-08-14T04:58:33.762Z,21.20
2022-08-14T05:01:03.668Z,21.20
2022-08-14T05:03:33.224Z,21.20
2022-08-14T05:06:03.262Z,21.20
2022-08-14T05:08:50.572Z,21.20
2022-08-14T05:11:19.406Z,21.20
2022-08-14T05:14:33.700Z,21.20
2022-08-14T05:16:33.733Z,21.20
2022-08-14T05:19:18.037Z,21.20
2022-08-14T05:21:57.378Z,21.30
2022-08-14T05:24:26.088Z,21.30
2022-08-14T05:26:53.268Z,21.40
2022-08-14T05:29:20.552Z,21.50
2022-08-14T05:31:47.547Z,21.50
2022-08-14T05:34:14.283Z,21.60
2022-08-14T05:36:43.047Z,21.60
2022-08-14T05:39:17.608Z,21.70
2022-08-14T05:41:53.668Z,21.90
2022-08-14T05:44:21.281Z,21.90
2022-08-14T05:46:48.843Z,22.00
2022-08-14T05:49:16.489Z,22.10
2022-08-14T05:51:46.824Z,22.10
2022-08-14T05:54:26.623Z,22.10
2022-08-14T05:56:55.133Z,22.20
2022-08-14T05:59:31.549Z,22.30
2022-08-14T06:02:10.017Z,22.30
2022-08-14T06:04:37.799Z,22.40
2022-08-14T06:07:05.017Z,22.40
2022-08-14T06:09:36.076Z,22.50
2022-08-14T06:12:10.771Z,22.60
2022-08-14T06:14:39.404Z,22.70
2022-08-14T06:17:06.745Z,22.80
2022-08-14T06:19:33.624Z,22.80
2022-08-14T06:22:00.398Z,22.80
2022-08-14T06:24:30.472Z,22.80
2022-08-14T06:27:04.333Z,22.90
2022-08-14T06:29:34.996Z,23.00
2022-08-14T06:32:38.332Z,23.10
2022-08-14T06:35:10.329Z,23.10
2022-08-14T06:37:54.776Z,23.10
2022-08-14T06:40:29.065Z,23.10
2022-08-14T06:43:03.440Z,23.00
2022-08-14T06:45:31.639Z,22.90
2022-08-14T06:48:00.851Z,22.80
2022-08-14T06:50:30.294Z,22.80
2022-08-14T06:52:58.863Z,22.80
2022-08-14T06:55:28.390Z,22.80
2022-08-14T06:57:57.493Z,22.80
2022-08-14T07:00:31.053Z,23.00
2022-08-14T07:03:17.521Z,23.20
2022-08-14T07:05:55.328Z,23.30
2022-08-14T07:08:31.022Z,23.30
2022-08-14T07:11:01.430Z,23.30
2022-08-14T07:13:30.705Z,23.20
2022-08-14T07:15:58.896Z,23.10
2022-08-14T07:18:29.661Z,23.00
2022-08-14T07:20:59.527Z,22.90
2022-08-14T07:23:26.581Z,22.80
2022-08-14T07:25:56.628Z,22.80
2022-08-14T07:28:28.231Z,22.90
2022-08-14T07:31:04.767Z,22.90
2022-08-14T07:33:37.799Z,23.00
2022-08-14T07:36:27.819Z,23.00
2022-08-14T07:39:03.339Z,23.00
2022-08-14T07:41:39.106Z,23.00
2022-08-14T07:44:32.384Z,23.00
2022-08-14T07:46:58.129Z,22.90
2022-08-14T07:49:25.518Z,22.90
2022-08-14T07:51:52.334Z,22.80
2022-08-14T07:54:23.329Z,22.80
2022-08-14T07:57:00.008Z,23.00
2022-08-14T07:59:41.862Z,23.10
2022-08-14T08:02:18.546Z,23.40
2022-08-14T08:04:55.378Z,23.50
2022-08-14T08:07:30.622Z,23.50
2022-08-14T08:09:59.886Z,23.50
2022-08-14T08:12:30.960Z,23.50
2022-08-14T08:15:02.510Z,23.50
2022-08-14T08:17:38.645Z,23.50
2022-08-14T08:20:11.526Z,23.50
2022-08-14T08:22:40.790Z,23.50
2022-08-14T08:25:13.813Z,23.60
2022-08-14T08:27:44.687Z,23.80
2022-08-14T08:30:12.565Z,24.10
2022-08-14T08:32:43.703Z,23.00
2022-08-14T08:35:17.976Z,24.50
2022-08-14T08:37:45.272Z,24.60
2022-08-14T08:40:31.257Z,24.80
2022-08-14T08:42:59.475Z,24.80
2022-08-14T08:45:27.763Z,24.80
2022-08-14T08:47:55.349Z,24.90
2022-08-14T08:53:00.223Z,24.80
2022-08-14T08:55:36.653Z,24.80
2022-08-14T08:58:20.132Z,24.80
2022-08-14T09:00:56.443Z,24.80
2022-08-14T09:03:28.108Z,24.80
2022-08-14T09:05:57.426Z,24.80
2022-08-14T09:08:31.560Z,24.80
2022-08-14T09:11:19.347Z,24.80
2022-08-14T09:13:53.519Z,24.90
2022-08-14T09:16:23.609Z,25.00
2022-08-14T09:18:53.027Z,25.00
2022-08-14T09:21:24.141Z,24.90
2022-08-14T09:24:27.007Z,25.00
2022-08-14T09:26:49.190Z,26.90
2022-08-14T09:29:17.964Z,28.20
2022-08-14T09:31:55.932Z,28.90
2022-08-14T09:34:57.970Z,29.30
2022-08-14T09:37:40.102Z,29.30
2022-08-14T09:42:58.171Z,29.90
2022-08-14T09:45:52.821Z,29.60
2022-08-14T09:48:29.831Z,29.00
2022-08-14T09:54:18.710Z,28.00
2022-08-14T09:56:32.850Z,27.50
2022-08-14T09:59:15.172Z,27.10
2022-08-14T10:01:43.648Z,26.80
2022-08-14T10:04:34.376Z,26.60
2022-08-14T10:07:03.655Z,26.40
2022-08-14T10:09:33.195Z,26.30
2022-08-14T10:12:00.516Z,26.20
2022-08-14T10:14:36.692Z,26.10
2022-08-14T10:17:06.310Z,26.10
2022-08-14T10:19:35.364Z,26.00
2022-08-14T10:23:14.988Z,26.00
2022-08-14T10:24:57.582Z,26.20
2022-08-14T10:27:28.717Z,26.30
2022-08-14T10:29:59.807Z,26.20
2022-08-14T10:32:36.062Z,26.20
2022-08-14T10:35:14.321Z,26.30
2022-08-14T10:37:49.596Z,26.40
2022-08-14T10:40:37.433Z,26.60
2022-08-14T10:43:17.698Z,26.80
2022-08-14T10:46:03.867Z,27.00
2022-08-14T10:48:46.101Z,27.20
2022-08-14T10:51:23.926Z,27.30
2022-08-14T10:53:56.244Z,27.60
2022-08-14T10:56:34.981Z,27.70
2022-08-14T10:59:04.242Z,27.80
2022-08-14T11:01:32.962Z,27.80
2022-08-14T11:04:25.081Z,27.80
2022-08-14T11:06:53.696Z,27.70
2022-08-14T11:09:20.553Z,27.60
2022-08-14T11:11:55.658Z,27.60
2022-08-14T11:14:23.148Z,27.70
2022-08-14T11:16:54.302Z,27.70
2022-08-14T11:19:25.012Z,27.70
2022-08-14T11:21:55.555Z,27.80
2022-08-14T11:24:54.119Z,27.80
2022-08-14T11:27:18.980Z,27.70
2022-08-14T11:29:52.509Z,27.60
2022-08-14T11:32:26.630Z,27.50
2022-08-14T11:34:53.494Z,27.40
2022-08-14T11:37:36.357Z,27.40
2022-08-14T11:40:16.148Z,27.30
2022-08-14T11:42:57.236Z,27.20
2022-08-14T11:45:34.327Z,27.10
2022-08-14T11:49:01.789Z,27.00
2022-08-14T11:51:24.106Z,27.00
2022-08-14T11:53:57.595Z,27.00
2022-08-14T11:56:29.794Z,26.80
2022-08-14T11:58:57.523Z,26.70
2022-08-14T12:01:28.522Z,26.70
2022-08-14T12:03:59.193Z,26.70
2022-08-14T12:06:39.457Z,26.90
2022-08-14T12:09:08.834Z,27.10
2022-08-14T12:11:47.606Z,27.10
2022-08-14T12:14:34.739Z,27.10
2022-08-14T12:17:12.259Z,27.10
2022-08-14T12:19:54.056Z,27.00
2022-08-14T12:22:43.779Z,27.20
2022-08-14T12:25:14.193Z,27.50
2022-08-14T12:27:52.464Z,27.70
2022-08-14T12:30:37.705Z,27.80
2022-08-14T12:33:30.726Z,27.60
2022-08-14T12:36:04.170Z,27.40
2022-08-14T12:38:36.017Z,27.30
2022-08-14T12:41:05.422Z,27.20
2022-08-14T12:43:34.071Z,27.10
2022-08-14T12:46:01.736Z,27.00
2022-08-14T12:48:31.697Z,26.90
2022-08-14T12:50:59.859Z,26.70
2022-08-14T12:53:36.307Z,26.70
2022-08-14T12:56:21.867Z,26.70
2022-08-14T12:58:59.191Z,26.80
2022-08-14T13:01:28.728Z,27.00
2022-08-14T13:04:13.111Z,27.10
2022-08-14T13:06:41.715Z,27.20
2022-08-14T13:09:13.553Z,27.30
2022-08-14T13:11:45.729Z,27.20
2022-08-14T13:14:17.325Z,27.10
2022-08-14T13:16:45.643Z,27.10
2022-08-14T13:19:18.412Z,27.20
2022-08-14T13:22:05.011Z,27.30
2022-08-14T13:24:34.457Z,27.30
2022-08-14T13:27:04.747Z,27.40
2022-08-14T13:29:37.599Z,27.40
2022-08-14T13:32:09.447Z,27.40
2022-08-14T13:34:37.432Z,27.40
2022-08-14T13:37:07.174Z,27.40
2022-08-14T13:39:36.268Z,27.40
2022-08-14T13:42:08.445Z,27.30
2022-08-14T13:44:40.349Z,27.30
2022-08-14T13:47:10.437Z,27.40
2022-08-14T13:49:56.957Z,27.50
2022-08-14T13:52:52.798Z,27.50
2022-08-14T13:55:15.674Z,27.50
2022-08-14T13:57:49.857Z,27.60
2022-08-14T14:00:51.887Z,27.60
2022-08-14T14:03:22.916Z,27.70
2022-08-14T14:05:54.296Z,27.60
2022-08-14T14:08:46.566Z,27.70
2022-08-14T14:11:10.026Z,27.60
2022-08-14T14:13:44.828Z,27.40
2022-08-14T14:16:15.496Z,27.20
2022-08-14T14:18:56.390Z,27.10
2022-08-14T14:21:28.800Z,27.00
2022-08-14T14:23:56.329Z,27.00
2022-08-14T14:26:24.679Z,27.00
2022-08-14T14:28:56.713Z,27.10
2022-08-14T14:31:29.639Z,27.00
2022-08-14T14:34:07.303Z,26.90
2022-08-14T14:36:52.790Z,26.90
2022-08-14T14:39:28.822Z,26.90
2022-08-14T14:41:59.655Z,26.80
2022-08-14T14:44:40.402Z,26.70
2022-08-14T14:47:13.515Z,26.70
2022-08-14T14:49:55.180Z,26.70
2022-08-14T14:52:27.561Z,26.60
2022-08-14T14:54:59.454Z,26.60
2022-08-14T14:57:34.899Z,26.60
2022-08-14T15:00:08.801Z,26.50
2022-08-14T15:02:42.262Z,26.50
2022-08-14T15:05:10.322Z,26.40
2022-08-14T15:07:38.217Z,26.40
2022-08-14T15:10:27.577Z,26.40
2022-08-14T15:12:57.755Z,26.30
2022-08-14T15:15:27.380Z,26.20
2022-08-14T15:17:54.974Z,26.20
2022-08-14T15:20:31.058Z,26.10
2022-08-14T15:23:12.094Z,26.10
2022-08-14T15:25:43.765Z,26.00
2022-08-14T15:28:21.777Z,26.00
2022-08-14T15:30:57.694Z,25.90
2022-08-14T15:34:13.232Z,25.90
2022-08-14T15:36:31.319Z,25.80
2022-08-14T15:38:59.119Z,25.80
2022-08-14T15:41:26.815Z,25.80
2022-08-14T15:44:00.904Z,25.70
2022-08-14T15:46:42.923Z,25.70
2022-08-14T15:49:12.551Z,25.60
2022-08-14T15:51:42.395Z,25.60
2022-08-14T15:54:11.217Z,25.60
2022-08-14T15:56:43.112Z,25.50
2022-08-14T15:59:13.272Z,25.50
2022-08-14T16:01:54.099Z,25.50
2022-08-14T16:04:23.767Z,25.50
2022-08-14T16:06:54.677Z,25.40
2022-08-14T16:09:22.806Z,25.40
2022-08-14T16:11:50.804Z,25.40
2022-08-14T16:14:21.695Z,25.40
2022-08-14T16:17:00.130Z,25.30
2022-08-14T16:19:31.094Z,25.30
2022-08-14T16:22:57.488Z,25.30
2022-08-14T16:25:02.004Z,25.20
2022-08-14T16:27:37.858Z,25.20
2022-08-14T16:30:25.364Z,25.20
2022-08-14T16:32:57.063Z,25.10
2022-08-14T16:35:43.501Z,25.10
2022-08-14T16:38:19.576Z,25.10
2022-08-14T16:41:22.274Z,25.00
2022-08-14T16:44:21.878Z,25.00
2022-08-14T16:47:02.694Z,25.00
2022-08-14T16:50:03.059Z,25.00
2022-08-14T16:52:26.008Z,24.90
2022-08-14T16:55:11.124Z,24.90
2022-08-14T16:57:55.297Z,24.90
2022-08-14T17:00:43.920Z,24.90
2022-08-14T17:03:12.365Z,24.90
2022-08-14T17:05:43.099Z,24.80
2022-08-14T17:08:41.379Z,24.80
2022-08-14T17:11:11.003Z,24.80
2022-08-14T17:13:58.595Z,24.70
2022-08-14T17:16:38.591Z,24.70
2022-08-14T17:19:13.939Z,24.60
2022-08-14T17:21:47.333Z,24.60
2022-08-14T17:24:56.373Z,24.50
2022-08-14T17:27:06.023Z,24.40
2022-08-14T17:29:54.623Z,24.40
2022-08-14T17:32:29.672Z,24.40
2022-08-14T17:35:16.849Z,24.30
2022-08-14T17:37:56.067Z,24.20
2022-08-14T17:40:29.089Z,24.20
2022-08-14T17:43:01.974Z,24.20
2022-08-14T17:45:41.348Z,24.10
2022-08-14T17:49:14.507Z,24.00
2022-08-14T17:51:14.183Z,24.00
2022-08-14T17:53:53.888Z,23.90
2022-08-14T17:56:34.122Z,23.90
2022-08-14T17:59:06.786Z,23.80
2022-08-14T18:01:46.100Z,23.70
2022-08-14T18:04:24.873Z,23.70
2022-08-14T18:07:16.532Z,23.70
2022-08-14T18:09:58.755Z,23.60
2022-08-14T18:12:36.595Z,23.50
2022-08-14T18:15:14.826Z,23.50
2022-08-14T18:17:52.656Z,23.40
2022-08-14T18:21:40.969Z,23.30
2022-08-14T18:23:12.737Z,23.30
2022-08-14T18:25:50.365Z,23.20
2022-08-14T18:28:48.695Z,23.10
2022-08-14T18:31:20.487Z,23.00
2022-08-14T18:37:14.394Z,22.90
2022-08-14T18:40:01.282Z,22.80
2022-08-14T18:42:33.095Z,22.70
2022-08-14T18:45:01.915Z,22.60
2022-08-14T18:47:56.584Z,22.50
2022-08-14T18:50:30.965Z,22.50
2022-08-14T18:53:08.958Z,22.40
2022-08-14T18:55:37.266Z,22.40
2022-08-14T18:58:31.113Z,22.30
2022-08-14T19:01:00.087Z,22.30
2022-08-14T19:03:36.375Z,22.30
2022-08-14T19:06:07.119Z,22.30
2022-08-14T19:08:38.648Z,22.30
2022-08-14T19:11:32.129Z,22.30
2022-08-14T19:13:59.815Z,22.30
2022-08-14T19:16:36.747Z,22.20
2022-08-14T19:19:08.586Z,22.20
2022-08-14T19:21:40.039Z,22.20
2022-08-14T19:24:27.562Z,22.20
2022-08-14T19:27:19.666Z,22.20
2022-08-14T19:29:51.380Z,22.10
2022-08-14T19:32:36.705Z,22.10
2022-08-14T19:35:18.206Z,22.10
2022-08-14T19:37:52.135Z,22.00
2022-08-14T19:40:39.216Z,22.00
2022-08-14T19:43:09.596Z,22.00
2022-08-14T19:45:38.284Z,21.90
2022-08-14T19:48:12.796Z,21.90
2022-08-14T19:50:44.176Z,21.90
2022-08-14T19:53:17.339Z,21.90
2022-08-14T19:55:56.351Z,21.90
2022-08-14T19:58:29.936Z,21.90
2022-08-14T20:01:01.511Z,21.80
2022-08-14T20:03:59.949Z,21.80
2022-08-14T20:06:46.596Z,21.80
2022-08-14T20:11:05.635Z,21.80
2022-08-14T20:12:04.525Z,21.70
2022-08-14T20:14:36.128Z,21.70
2022-08-14T20:17:06.731Z,21.60
2022-08-14T20:19:37.965Z,21.70
2022-08-14T20:22:36.257Z,21.60
2022-08-14T20:25:17.481Z,21.60
2022-08-14T20:27:46.048Z,21.60
2022-08-14T20:30:33.850Z,21.50
2022-08-14T20:33:07.472Z,21.50
2022-08-14T20:35:49.146Z,21.50
2022-08-14T20:38:29.792Z,21.40
2022-08-14T20:41:09.823Z,21.40
2022-08-14T20:44:02.722Z,21.30
2022-08-14T20:46:39.065Z,21.30
2022-08-14T20:49:12.411Z,21.30
2022-08-14T20:51:47.706Z,21.30
2022-08-14T20:54:33.800Z,21.30
2022-08-14T20:57:09.615Z,21.30
2022-08-14T20:59:53.023Z,21.30
2022-08-14T21:02:38.460Z,21.20
2022-08-14T21:05:19.422Z,21.20
2022-08-14T21:07:51.003Z,21.20
2022-08-14T21:10:35.804Z,21.20
2022-08-14T21:13:25.788Z,21.10
2022-08-14T21:15:56.694Z,21.10
2022-08-14T21:18:24.365Z,21.10
2022-08-14T21:20:56.806Z,21.10
2022-08-14T21:23:24.149Z,21.00
2022-08-14T21:25:51.037Z,21.00
2022-08-14T21:28:29.981Z,21.00
2022-08-14T21:31:01.564Z,21.00
2022-08-14T21:33:28.882Z,21.00
2022-08-14T21:35:58.168Z,21.00
2022-08-14T21:38:33.989Z,20.90
2022-08-14T21:41:41.683Z,20.90
2022-08-14T21:44:17.386Z,20.80
2022-08-14T21:46:53.591Z,20.80
2022-08-14T21:49:25.584Z,20.80
2022-08-14T21:52:49.267Z,20.80
2022-08-14T21:54:54.422Z,20.70
2022-08-14T21:57:55.956Z,20.70
2022-08-14T22:03:02.188Z,20.60
2022-08-14T22:05:29.688Z,20.60
2022-08-14T22:07:57.496Z,20.60
2022-08-14T22:10:24.557Z,20.60
2022-08-14T22:13:00.033Z,20.60
2022-08-14T22:15:28.261Z,20.60
2022-08-14T22:17:55.406Z,20.50
2022-08-14T22:20:25.565Z,20.50
2022-08-14T22:25:23.046Z,21.00
2022-08-14T22:28:01.252Z,20.50
2022-08-14T22:30:28.037Z,20.40
2022-08-14T22:32:57.866Z,20.20
2022-08-14T22:35:26.051Z,20.30
2022-08-14T22:38:01.699Z,20.30
2022-08-14T22:41:03.173Z,20.20
2022-08-14T22:43:31.327Z,20.20
2022-08-14T22:48:29.967Z,20.20
2022-08-14T22:50:57.123Z,20.20
2022-08-14T22:53:29.212Z,20.20
2022-08-14T22:55:57.037Z,20.20
2022-08-14T22:58:30.662Z,20.10
2022-08-14T23:01:01.054Z,20.20
2022-08-14T23:03:34.153Z,20.10
2022-08-14T23:06:02.211Z,20.10
2022-08-14T23:08:58.370Z,20.10
2022-08-14T23:11:16.642Z,20.10
2022-08-14T23:13:46.278Z,20.10
2022-08-14T23:16:19.684Z,20.10
2022-08-14T23:18:54.202Z,20.20
2022-08-14T23:21:24.644Z,20.20
2022-08-14T23:23:54.929Z,20.20
2022-08-14T23:26:48.104Z,20.10
2022-08-14T23:29:12.100Z,20.10
2022-08-14T23:31:39.631Z,20.10
2022-08-14T23:34:10.884Z,20.00
2022-08-14T23:36:53.917Z,20.00
2022-08-14T23:39:30.292Z,19.90
2022-08-14T23:42:04.279Z,19.90
2022-08-14T23:44:35.112Z,19.90
2022-08-14T23:47:11.045Z,19.90
2022-08-14T23:50:00.801Z,19.80
2022-08-14T23:52:50.401Z,19.80
2022-08-14T23:55:33.071Z,19.80
2022-08-14T23:58:00.679Z,19.80
